sensor_id;sensor_type;location;lat;lon;timestamp;pressure;altitude;pressure_sealevel;temperature;humidity
82858;BME280;72620;47.774;9.620;2023-11-19T00:01:50;96570.31;;;6.98;89.67
82858;BME280;72620;47.774;9.620;2023-11-19T00:04:17;96554.19;;;6.97;88.99
82858;BME280;72620;47.774;9.620;2023-11-19T00:06:44;96550.84;;;6.97;90.13
82858;BME280;72620;47.774;9.620;2023-11-19T00:09:11;96550.84;;;6.97;89.85
82858;BME280;72620;47.774;9.620;2023-11-19T00:11:39;96547.72;;;6.93;89.68
82858;BME280;72620;47.774;9.620;2023-11-19T00:14:06;96565.56;;;6.93;90.64
82858;BME280;72620;47.774;9.620;2023-11-19T00:16:35;96564.97;;;7.01;89.60
82858;BME280;72620;47.774;9.620;2023-11-19T00:19:02;96556.38;;;7.02;89.96
82858;BME280;72620;47.774;9.620;2023-11-19T00:21:30;96535.03;;;7.03;90.06
82858;BME280;72620;47.774;9.620;2023-11-19T00:24:00;96534.22;;;7.02;89.32
82858;BME280;72620;47.774;9.620;2023-11-19T00:26:27;96525.06;;;7.00;88.86
82858;BME280;72620;47.774;9.620;2023-11-19T00:28:54;96532.72;;;7.00;90.00
82858;BME280;72620;47.774;9.620;2023-11-19T00:31:22;96532.72;;;7.00;90.00
82858;BME280;72620;47.774;9.620;2023-11-19T00:33:50;96512.31;;;7.00;89.58
82858;BME280;72620;47.774;9.620;2023-11-19T00:36:17;96505.72;;;6.97;89.99
82858;BME280;72620;47.774;9.620;2023-11-19T00:38:44;96504.78;;;6.98;90.84
82858;BME280;72620;47.774;9.620;2023-11-19T00:41:11;96512.44;;;6.98;90.14
82858;BME280;72620;47.774;9.620;2023-11-19T00:43:38;96508.38;;;6.96;89.94
82858;BME280;72620;47.774;9.620;2023-11-19T00:46:07;96510.94;;;6.96;90.38
82858;BME280;72620;47.774;9.620;2023-11-19T00:48:34;96505.84;;;6.96;91.13
82858;BME280;72620;47.774;9.620;2023-11-19T00:51:01;96494.59;;;6.98;90.82
82858;BME280;72620;47.774;9.620;2023-11-19T00:53:29;96484.63;;;6.95;91.25
82858;BME280;72620;47.774;9.620;2023-11-19T00:55:57;96484.06;;;6.92;91.26
82858;BME280;72620;47.774;9.620;2023-11-19T00:58:25;96485.94;;;6.90;90.50
82858;BME280;72620;47.774;9.620;2023-11-19T01:00:55;96497.88;;;6.89;91.07
82858;BME280;72620;47.774;9.620;2023-11-19T01:03:25;96507.94;;;6.91;91.61
82858;BME280;72620;47.774;9.620;2023-11-19T01:05:52;96499.13;;;6.95;91.24
82858;BME280;72620;47.774;9.620;2023-11-19T01:08:20;96504.34;;;6.93;91.23
82858;BME280;72620;47.774;9.620;2023-11-19T01:10:47;96508.38;;;6.96;91.70
82858;BME280;72620;47.774;9.620;2023-11-19T01:13:14;96509.91;;;6.98;91.08
82858;BME280;72620;47.774;9.620;2023-11-19T01:15:41;96510.03;;;6.97;91.07
82858;BME280;72620;47.774;9.620;2023-11-19T01:18:08;96518.47;;;6.97;91.03
82858;BME280;72620;47.774;9.620;2023-11-19T01:20:36;96515.81;;;6.99;91.40
82858;BME280;72620;47.774;9.620;2023-11-19T01:23:03;96519.19;;;6.99;91.71
82858;BME280;72620;47.774;9.620;2023-11-19T01:25:31;96520.66;;;7.02;91.07
82858;BME280;72620;47.774;9.620;2023-11-19T01:27:58;96508.47;;;7.05;91.24
82858;BME280;72620;47.774;9.620;2023-11-19T01:30:26;96523.53;;;7.08;91.18
82858;BME280;72620;47.774;9.620;2023-11-19T01:32:53;96527.56;;;7.11;91.24
82858;BME280;72620;47.774;9.620;2023-11-19T01:35:20;96523.06;;;7.14;91.41
82858;BME280;72620;47.774;9.620;2023-11-19T01:37:49;96533.13;;;7.16;90.70
82858;BME280;72620;47.774;9.620;2023-11-19T01:40:20;96516.06;;;7.16;90.77
82858;BME280;72620;47.774;9.620;2023-11-19T01:42:48;96515.84;;;7.19;91.05
82858;BME280;72620;47.774;9.620;2023-11-19T01:45:27;96517.00;;;7.15;91.50
82858;BME280;72620;47.774;9.620;2023-11-19T01:47:59;96517.00;;;7.15;91.50
82858;BME280;72620;47.774;9.620;2023-11-19T01:50:31;96487.00;;;7.08;90.49
82858;BME280;72620;47.774;9.620;2023-11-19T01:53:00;96486.88;;;7.09;90.67
82858;BME280;72620;47.774;9.620;2023-11-19T01:55:28;96485.13;;;7.10;91.73
82858;BME280;72620;47.774;9.620;2023-11-19T01:58:01;96478.41;;;7.09;91.80
82858;BME280;72620;47.774;9.620;2023-11-19T02:00:30;96475.03;;;7.08;90.85
82858;BME280;72620;47.774;9.620;2023-11-19T02:03:00;96467.28;;;7.10;91.26
82858;BME280;72620;47.774;9.620;2023-11-19T02:05:27;96453.81;;;7.08;89.97
82858;BME280;72620;47.774;9.620;2023-11-19T02:07:59;96457.97;;;7.09;90.79
82858;BME280;72620;47.774;9.620;2023-11-19T02:10:26;96466.31;;;7.11;91.66
82858;BME280;72620;47.774;9.620;2023-11-19T02:12:53;96451.00;;;7.11;91.21
82858;BME280;72620;47.774;9.620;2023-11-19T02:15:33;96450.22;;;7.10;92.16
82858;BME280;72620;47.774;9.620;2023-11-19T02:18:26;96435.69;;;7.11;91.26
82858;BME280;72620;47.774;9.620;2023-11-19T02:20:55;96430.34;;;7.14;91.61
82858;BME280;72620;47.774;9.620;2023-11-19T02:23:26;96437.09;;;7.15;91.79
82858;BME280;72620;47.774;9.620;2023-11-19T02:28:46;96403.75;;;7.16;93.18
82858;BME280;72620;47.774;9.620;2023-11-19T02:31:14;96400.41;;;7.16;91.75
82858;BME280;72620;47.774;9.620;2023-11-19T02:33:41;96394.38;;;7.17;92.83
82858;BME280;72620;47.774;9.620;2023-11-19T02:36:09;96410.38;;;7.19;92.85
82858;BME280;72620;47.774;9.620;2023-11-19T02:38:36;96400.03;;;7.20;91.87
82858;BME280;72620;47.774;9.620;2023-11-19T02:41:04;96390.63;;;7.21;92.34
82858;BME280;72620;47.774;9.620;2023-11-19T02:43:34;96390.63;;;7.21;92.34
82858;BME280;72620;47.774;9.620;2023-11-19T02:46:05;96398.44;;;7.29;92.29
82858;BME280;72620;47.774;9.620;2023-11-19T02:48:38;96379.66;;;7.30;92.40
82858;BME280;72620;47.774;9.620;2023-11-19T02:51:05;96393.09;;;7.32;92.59
82858;BME280;72620;47.774;9.620;2023-11-19T02:53:35;96393.09;;;7.32;92.59
82858;BME280;72620;47.774;9.620;2023-11-19T02:56:04;96394.16;;;7.29;92.83
82858;BME280;72620;47.774;9.620;2023-11-19T02:58:52;96389.88;;;7.30;91.96
82858;BME280;72620;47.774;9.620;2023-11-19T03:01:26;96397.97;;;7.35;91.67
82858;BME280;72620;47.774;9.620;2023-11-19T03:03:58;96398.63;;;7.37;92.79
82858;BME280;72620;47.774;9.620;2023-11-19T03:06:29;96404.41;;;7.39;92.28
82858;BME280;72620;47.774;9.620;2023-11-19T03:08:56;96391.00;;;7.47;92.53
82858;BME280;72620;47.774;9.620;2023-11-19T03:11:23;96398.84;;;7.55;92.75
82858;BME280;72620;47.774;9.620;2023-11-19T03:13:51;96398.84;;;7.55;92.75
82858;BME280;72620;47.774;9.620;2023-11-19T03:16:18;96395.47;;;7.54;93.03
82858;BME280;72620;47.774;9.620;2023-11-19T03:18:45;96384.03;;;7.58;92.96
82858;BME280;72620;47.774;9.620;2023-11-19T03:21:12;96394.94;;;7.60;92.86
82858;BME280;72620;47.774;9.620;2023-11-19T03:23:40;96387.84;;;7.64;92.95
82858;BME280;72620;47.774;9.620;2023-11-19T03:26:07;96383.03;;;7.70;92.70
82858;BME280;72620;47.774;9.620;2023-11-19T03:28:36;96383.03;;;7.70;92.70
82858;BME280;72620;47.774;9.620;2023-11-19T03:31:06;96385.16;;;7.65;92.86
82858;BME280;72620;47.774;9.620;2023-11-19T03:33:36;96382.22;;;7.70;92.56
82858;BME280;72620;47.774;9.620;2023-11-19T03:36:05;96388.13;;;7.70;92.61
82858;BME280;72620;47.774;9.620;2023-11-19T03:38:34;96385.19;;;7.75;92.42
82858;BME280;72620;47.774;9.620;2023-11-19T03:41:01;96382.88;;;7.72;92.82
82858;BME280;72620;47.774;9.620;2023-11-19T03:43:28;96396.22;;;7.75;92.83
82858;BME280;72620;47.774;9.620;2023-11-19T03:45:55;96396.22;;;7.75;92.83
82858;BME280;72620;47.774;9.620;2023-11-19T03:48:22;96393.25;;;7.70;92.56
82858;BME280;72620;47.774;9.620;2023-11-19T03:50:49;96394.16;;;7.69;92.56
82858;BME280;72620;47.774;9.620;2023-11-19T03:53:16;96390.69;;;7.70;92.85
82858;BME280;72620;47.774;9.620;2023-11-19T03:55:43;96396.72;;;7.69;93.16
82858;BME280;72620;47.774;9.620;2023-11-19T03:58:10;96393.09;;;7.72;92.94
82858;BME280;72620;47.774;9.620;2023-11-19T04:00:38;96395.53;;;7.73;92.93
82858;BME280;72620;47.774;9.620;2023-11-19T04:03:07;96400.09;;;7.70;93.41
82858;BME280;72620;47.774;9.620;2023-11-19T04:05:34;96409.38;;;7.80;92.88
82858;BME280;72620;47.774;9.620;2023-11-19T04:08:01;96409.38;;;7.80;92.88
82858;BME280;72620;47.774;9.620;2023-11-19T04:10:28;96405.34;;;7.78;93.04
82858;BME280;72620;47.774;9.620;2023-11-19T04:12:56;96411.84;;;7.82;92.92
82858;BME280;72620;47.774;9.620;2023-11-19T04:15:23;96407.50;;;7.82;92.84
82858;BME280;72620;47.774;9.620;2023-11-19T04:17:50;96420.28;;;7.82;92.74
82858;BME280;72620;47.774;9.620;2023-11-19T04:20:18;96421.50;;;7.78;93.03
82858;BME280;72620;47.774;9.620;2023-11-19T04:22:45;96419.88;;;7.77;93.04
82858;BME280;72620;47.774;9.620;2023-11-19T04:25:12;96414.78;;;7.77;93.34
82858;BME280;72620;47.774;9.620;2023-11-19T04:27:40;96421.50;;;7.78;93.24
82858;BME280;72620;47.774;9.620;2023-11-19T04:30:07;96422.16;;;7.80;93.08
82858;BME280;72620;47.774;9.620;2023-11-19T04:32:38;96424.72;;;7.80;93.14
82858;BME280;72620;47.774;9.620;2023-11-19T04:35:05;96429.72;;;7.82;93.31
82858;BME280;72620;47.774;9.620;2023-11-19T04:37:33;96426.78;;;7.86;93.42
82858;BME280;72620;47.774;9.620;2023-11-19T04:40:01;96423.94;;;7.89;93.39
82858;BME280;72620;47.774;9.620;2023-11-19T04:42:29;96436.63;;;8.00;93.66
82858;BME280;72620;47.774;9.620;2023-11-19T04:44:56;96436.63;;;8.00;93.66
82858;BME280;72620;47.774;9.620;2023-11-19T04:47:23;96423.84;;;8.00;93.72
82858;BME280;72620;47.774;9.620;2023-11-19T04:49:50;96416.16;;;8.00;93.97
82858;BME280;72620;47.774;9.620;2023-11-19T04:52:17;96426.56;;;8.09;94.03
82858;BME280;72620;47.774;9.620;2023-11-19T04:54:45;96426.56;;;8.09;94.03
82858;BME280;72620;47.774;9.620;2023-11-19T04:57:12;96414.28;;;8.02;94.23
82858;BME280;72620;47.774;9.620;2023-11-19T04:59:39;96429.50;;;8.04;94.33
82858;BME280;72620;47.774;9.620;2023-11-19T05:02:08;96435.97;;;8.08;94.38
82858;BME280;72620;47.774;9.620;2023-11-19T05:04:35;96435.03;;;8.09;94.37
82858;BME280;72620;47.774;9.620;2023-11-19T05:07:02;96438.53;;;8.08;94.62
82858;BME280;72620;47.774;9.620;2023-11-19T05:09:31;96409.47;;;8.09;94.81
82858;BME280;72620;47.774;9.620;2023-11-19T05:11:58;96436.66;;;8.10;95.00
82858;BME280;72620;47.774;9.620;2023-11-19T05:14:25;96435.03;;;8.09;95.08
82858;BME280;72620;47.774;9.620;2023-11-19T05:16:52;96435.56;;;8.13;94.98
82858;BME280;72620;47.774;9.620;2023-11-19T05:19:19;96430.22;;;8.16;94.91
82858;BME280;72620;47.774;9.620;2023-11-19T05:21:47;96430.88;;;8.18;94.88
82858;BME280;72620;47.774;9.620;2023-11-19T05:24:14;96427.50;;;8.17;94.74
82858;BME280;72620;47.774;9.620;2023-11-19T05:26:41;96435.72;;;8.21;94.70
82858;BME280;72620;47.774;9.620;2023-11-19T05:29:08;96433.16;;;8.21;94.65
82858;BME280;72620;47.774;9.620;2023-11-19T05:31:35;96432.91;;;8.24;94.68
82858;BME280;72620;47.774;9.620;2023-11-19T05:34:04;96415.72;;;8.26;94.48
82858;BME280;72620;47.774;9.620;2023-11-19T05:36:32;96403.84;;;8.25;93.21
82858;BME280;72620;47.774;9.620;2023-11-19T05:38:59;96393.78;;;8.33;94.41
82858;BME280;72620;47.774;9.620;2023-11-19T05:41:26;96396.88;;;8.36;93.55
82858;BME280;72620;47.774;9.620;2023-11-19T05:43:54;96403.88;;;8.34;94.49
82858;BME280;72620;47.774;9.620;2023-11-19T05:46:21;96421.38;;;8.39;94.33
82858;BME280;72620;47.774;9.620;2023-11-19T05:48:48;96426.47;;;8.39;94.28
82858;BME280;72620;47.774;9.620;2023-11-19T05:51:15;96425.31;;;8.43;94.30
82858;BME280;72620;47.774;9.620;2023-11-19T05:53:43;96433.50;;;8.46;94.27
82858;BME280;72620;47.774;9.620;2023-11-19T05:56:13;96418.56;;;8.51;94.06
82858;BME280;72620;47.774;9.620;2023-11-19T05:58:40;96422.59;;;8.54;94.01
82858;BME280;72620;47.774;9.620;2023-11-19T06:01:07;96426.50;;;8.58;94.00
82858;BME280;72620;47.774;9.620;2023-11-19T06:03:35;96443.06;;;8.54;93.93
82858;BME280;72620;47.774;9.620;2023-11-19T06:06:03;96440.22;;;8.57;94.20
82858;BME280;72620;47.774;9.620;2023-11-19T06:08:32;96441.47;;;8.62;94.13
82858;BME280;72620;47.774;9.620;2023-11-19T06:10:59;96438.63;;;8.65;94.10
82858;BME280;72620;47.774;9.620;2023-11-19T06:13:28;96436.72;;;8.67;94.09
82858;BME280;72620;47.774;9.620;2023-11-19T06:16:01;96430.69;;;8.68;94.24
82858;BME280;72620;47.774;9.620;2023-11-19T06:18:32;96427.44;;;8.66;94.32
82858;BME280;72620;47.774;9.620;2023-11-19T06:20:59;96422.19;;;8.68;94.38
82858;BME280;72620;47.774;9.620;2023-11-19T06:23:26;96423.25;;;8.65;94.50
82858;BME280;72620;47.774;9.620;2023-11-19T06:25:53;96422.06;;;8.69;94.32
82858;BME280;72620;47.774;9.620;2023-11-19T06:28:20;96428.63;;;8.72;94.78
82858;BME280;72620;47.774;9.620;2023-11-19T06:30:48;96419.38;;;8.81;94.54
82858;BME280;72620;47.774;9.620;2023-11-19T06:33:15;96416.00;;;8.80;94.64
82858;BME280;72620;47.774;9.620;2023-11-19T06:35:42;96433.34;;;8.86;94.64
82858;BME280;72620;47.774;9.620;2023-11-19T06:38:10;96452.88;;;8.97;94.69
82858;BME280;72620;47.774;9.620;2023-11-19T06:40:37;96452.88;;;8.97;94.69
82858;BME280;72620;47.774;9.620;2023-11-19T06:43:04;96448.56;;;8.97;94.54
82858;BME280;72620;47.774;9.620;2023-11-19T06:45:35;96443.84;;;9.02;94.59
82858;BME280;72620;47.774;9.620;2023-11-19T06:48:04;96443.03;;;9.02;94.54
82858;BME280;72620;47.774;9.620;2023-11-19T06:50:32;96444.53;;;9.04;94.72
82858;BME280;72620;47.774;9.620;2023-11-19T06:53:00;96449.38;;;9.07;94.60
82858;BME280;72620;47.774;9.620;2023-11-19T06:55:27;96453.13;;;9.13;94.51
82858;BME280;72620;47.774;9.620;2023-11-19T06:57:54;96453.53;;;9.18;94.55
82858;BME280;72620;47.774;9.620;2023-11-19T07:00:21;96453.13;;;9.22;94.41
82858;BME280;72620;47.774;9.620;2023-11-19T07:02:49;96453.63;;;9.26;94.43
82858;BME280;72620;47.774;9.620;2023-11-19T07:05:17;96463.34;;;9.32;94.24
82858;BME280;72620;47.774;9.620;2023-11-19T07:07:44;96459.41;;;9.37;93.91
82858;BME280;72620;47.774;9.620;2023-11-19T07:10:13;96476.25;;;9.49;94.09
82858;BME280;72620;47.774;9.620;2023-11-19T07:12:40;96476.25;;;9.49;94.09
82858;BME280;72620;47.774;9.620;2023-11-19T07:15:09;96462.78;;;9.47;93.74
82858;BME280;72620;47.774;9.620;2023-11-19T07:17:36;96461.81;;;9.48;93.69
82858;BME280;72620;47.774;9.620;2023-11-19T07:20:04;96461.69;;;9.50;93.74
82858;BME280;72620;47.774;9.620;2023-11-19T07:22:32;96464.09;;;9.52;93.61
82858;BME280;72620;47.774;9.620;2023-11-19T07:24:59;96457.09;;;9.54;93.65
82858;BME280;72620;47.774;9.620;2023-11-19T07:27:26;96456.66;;;9.58;93.44
82858;BME280;72620;47.774;9.620;2023-11-19T07:29:54;96466.09;;;9.58;93.61
82858;BME280;72620;47.774;9.620;2023-11-19T07:32:21;96469.88;;;9.63;93.38
82858;BME280;72620;47.774;9.620;2023-11-19T07:34:48;96468.63;;;9.67;93.31
82858;BME280;72620;47.774;9.620;2023-11-19T07:37:15;96472.03;;;9.68;93.48
82858;BME280;72620;47.774;9.620;2023-11-19T07:39:43;96484.25;;;9.74;93.48
82858;BME280;72620;47.774;9.620;2023-11-19T07:42:10;96484.25;;;9.74;93.48
82858;BME280;72620;47.774;9.620;2023-11-19T07:44:37;96483.19;;;9.76;93.21
82858;BME280;72620;47.774;9.620;2023-11-19T07:47:05;96477.38;;;9.74;93.42
82858;BME280;72620;47.774;9.620;2023-11-19T07:49:32;96490.06;;;9.76;93.61
82858;BME280;72620;47.774;9.620;2023-11-19T07:51:59;96489.38;;;9.83;93.46
82858;BME280;72620;47.774;9.620;2023-11-19T07:54:26;96489.38;;;9.83;93.56
82858;BME280;72620;47.774;9.620;2023-11-19T07:56:53;96489.88;;;9.87;93.64
82858;BME280;72620;47.774;9.620;2023-11-19T07:59:20;96492.31;;;9.88;93.68
82858;BME280;72620;47.774;9.620;2023-11-19T08:01:48;96492.84;;;9.92;93.70
82858;BME280;72620;47.774;9.620;2023-11-19T08:04:15;96497.69;;;9.95;93.75
82858;BME280;72620;47.774;9.620;2023-11-19T08:06:42;96490.00;;;9.95;93.91
82858;BME280;72620;47.774;9.620;2023-11-19T08:09:09;96502.00;;;9.94;93.92
82858;BME280;72620;47.774;9.620;2023-11-19T08:11:43;96499.00;;;9.99;93.84
82858;BME280;72620;47.774;9.620;2023-11-19T08:14:11;96498.88;;;10.00;93.87
82858;BME280;72620;47.774;9.620;2023-11-19T08:16:39;96498.06;;;10.00;93.85
82858;BME280;72620;47.774;9.620;2023-11-19T08:19:06;96496.19;;;10.02;93.49
82858;BME280;72620;47.774;9.620;2023-11-19T08:21:35;96501.16;;;10.03;93.57
82858;BME280;72620;47.774;9.620;2023-11-19T08:24:02;96505.31;;;10.04;93.76
82858;BME280;72620;47.774;9.620;2023-11-19T08:26:30;96500.06;;;10.06;93.61
82858;BME280;72620;47.774;9.620;2023-11-19T08:28:57;96500.34;;;10.03;93.65
82858;BME280;72620;47.774;9.620;2023-11-19T08:31:25;96506.44;;;10.02;93.86
82858;BME280;72620;47.774;9.620;2023-11-19T08:33:52;96507.09;;;10.04;94.22
82858;BME280;72620;47.774;9.620;2023-11-19T08:36:19;96500.06;;;10.06;93.78
82858;BME280;72620;47.774;9.620;2023-11-19T08:38:46;96494.94;;;10.06;93.77
82858;BME280;72620;47.774;9.620;2023-11-19T08:41:16;96503.03;;;10.11;93.87
82858;BME280;72620;47.774;9.620;2023-11-19T08:43:45;96501.94;;;10.13;93.92
82858;BME280;72620;47.774;9.620;2023-11-19T08:46:12;96503.41;;;10.16;93.92
82858;BME280;72620;47.774;9.620;2023-11-19T08:48:39;96494.63;;;10.18;93.75
82858;BME280;72620;47.774;9.620;2023-11-19T08:51:07;96504.84;;;10.28;94.04
82858;BME280;72620;47.774;9.620;2023-11-19T08:53:34;96504.84;;;10.28;94.04
82858;BME280;72620;47.774;9.620;2023-11-19T08:56:02;96505.34;;;10.32;93.85
82858;BME280;72620;47.774;9.620;2023-11-19T08:58:30;96505.34;;;10.32;93.85
82858;BME280;72620;47.774;9.620;2023-11-19T09:00:58;96505.13;;;10.25;93.84
82858;BME280;72620;47.774;9.620;2023-11-19T09:03:25;96503.22;;;10.27;93.79
82858;BME280;72620;47.774;9.620;2023-11-19T09:05:54;96497.53;;;10.33;93.78
82858;BME280;72620;47.774;9.620;2023-11-19T09:08:21;96489.91;;;10.41;93.79
82858;BME280;72620;47.774;9.620;2023-11-19T09:10:48;96493.81;;;10.45;93.74
82858;BME280;72620;47.774;9.620;2023-11-19T09:13:15;96494.56;;;10.55;93.59
82858;BME280;72620;47.774;9.620;2023-11-19T09:15:42;96497.34;;;10.62;93.25
82858;BME280;72620;47.774;9.620;2023-11-19T09:18:09;96490.59;;;10.61;93.41
82858;BME280;72620;47.774;9.620;2023-11-19T09:20:36;96497.19;;;10.63;93.72
82858;BME280;72620;47.774;9.620;2023-11-19T09:23:06;96493.53;;;10.66;93.82
82858;BME280;72620;47.774;9.620;2023-11-19T09:25:34;96496.50;;;10.71;94.04
82858;BME280;72620;47.774;9.620;2023-11-19T09:28:04;96498.31;;;10.78;93.77
82858;BME280;72620;47.774;9.620;2023-11-19T09:30:32;96508.94;;;10.83;93.70
82858;BME280;72620;47.774;9.620;2023-11-19T09:33:00;96510.13;;;10.89;93.62
82858;BME280;72620;47.774;9.620;2023-11-19T09:35:28;96513.44;;;10.99;93.79
82858;BME280;72620;47.774;9.620;2023-11-19T09:37:55;96513.44;;;10.99;93.79
82858;BME280;72620;47.774;9.620;2023-11-19T09:40:23;96509.25;;;10.98;93.28
82858;BME280;72620;47.774;9.620;2023-11-19T09:42:50;96510.34;;;10.96;93.67
82858;BME280;72620;47.774;9.620;2023-11-19T09:45:20;96521.44;;;11.14;93.74
82858;BME280;72620;47.774;9.620;2023-11-19T09:47:51;96518.63;;;11.25;92.65
82858;BME280;72620;47.774;9.620;2023-11-19T09:50:20;96518.63;;;11.25;92.65
82858;BME280;72620;47.774;9.620;2023-11-19T09:52:48;96513.56;;;11.33;92.63
82858;BME280;72620;47.774;9.620;2023-11-19T09:55:15;96518.09;;;11.39;92.53
82858;BME280;72620;47.774;9.620;2023-11-19T09:57:44;96517.94;;;11.40;92.02
82858;BME280;72620;47.774;9.620;2023-11-19T10:00:13;96514.84;;;11.37;91.88
82858;BME280;72620;47.774;9.620;2023-11-19T10:02:44;96514.84;;;11.37;92.02
82858;BME280;72620;47.774;9.620;2023-11-19T10:05:14;96502.53;;;11.40;91.45
82858;BME280;72620;47.774;9.620;2023-11-19T10:07:42;96503.69;;;11.46;91.37
82858;BME280;72620;47.774;9.620;2023-11-19T10:10:12;96501.09;;;11.46;91.73
82858;BME280;72620;47.774;9.620;2023-11-19T10:12:45;96508.31;;;11.42;91.70
82858;BME280;72620;47.774;9.620;2023-11-19T10:15:24;96496.56;;;11.40;91.80
82858;BME280;72620;47.774;9.620;2023-11-19T10:17:57;96494.28;;;11.37;92.09
82858;BME280;72620;47.774;9.620;2023-11-19T10:20:24;96494.81;;;11.40;91.84
82858;BME280;72620;47.774;9.620;2023-11-19T10:22:55;96492.09;;;11.42;91.98
82858;BME280;72620;47.774;9.620;2023-11-19T10:25:25;96486.00;;;11.43;92.00
82858;BME280;72620;47.774;9.620;2023-11-19T10:27:56;96487.69;;;11.52;91.75
82858;BME280;72620;47.774;9.620;2023-11-19T10:30:27;96482.88;;;11.57;91.47
82858;BME280;72620;47.774;9.620;2023-11-19T10:33:10;96481.72;;;11.77;91.64
82858;BME280;72620;47.774;9.620;2023-11-19T10:35:57;96481.72;;;11.77;91.64
82858;BME280;72620;47.774;9.620;2023-11-19T10:38:27;96468.88;;;11.77;90.73
82858;BME280;72620;47.774;9.620;2023-11-19T10:40:55;96469.84;;;11.76;91.13
82858;BME280;72620;47.774;9.620;2023-11-19T10:43:22;96469.53;;;11.79;90.87
82858;BME280;72620;47.774;9.620;2023-11-19T10:45:51;96451.97;;;11.75;91.38
82858;BME280;72620;47.774;9.620;2023-11-19T10:48:18;96455.53;;;11.74;91.51
82858;BME280;72620;47.774;9.620;2023-11-19T10:50:51;96453.69;;;11.66;91.93
82858;BME280;72620;47.774;9.620;2023-11-19T10:53:24;96444.88;;;11.69;91.86
82858;BME280;72620;47.774;9.620;2023-11-19T10:55:57;96451.91;;;11.66;92.06
82858;BME280;72620;47.774;9.620;2023-11-19T10:58:28;96443.28;;;11.68;92.13
82858;BME280;72620;47.774;9.620;2023-11-19T11:01:01;96447.31;;;11.70;92.04
82858;BME280;72620;47.774;9.620;2023-11-19T11:03:39;96442.47;;;11.67;92.22
82858;BME280;72620;47.774;9.620;2023-11-19T11:06:08;96435.84;;;11.64;92.16
82858;BME280;72620;47.774;9.620;2023-11-19T11:08:37;96428.94;;;11.65;92.52
82858;BME280;72620;47.774;9.620;2023-11-19T11:11:07;96427.31;;;11.64;92.34
82858;BME280;72620;47.774;9.620;2023-11-19T11:13:36;96429.25;;;11.62;92.39
82858;BME280;72620;47.774;9.620;2023-11-19T11:16:07;96435.78;;;11.74;92.22
82858;BME280;72620;47.774;9.620;2023-11-19T11:18:35;96435.78;;;11.74;92.22
82858;BME280;72620;47.774;9.620;2023-11-19T11:21:11;96423.22;;;11.71;91.83
82858;BME280;72620;47.774;9.620;2023-11-19T11:27:16;96419.59;;;11.64;92.20
82858;BME280;72620;47.774;9.620;2023-11-19T11:30:49;96417.69;;;11.66;91.84
82858;BME280;72620;47.774;9.620;2023-11-19T11:37:17;96411.97;;;11.72;91.94
82858;BME280;72620;47.774;9.620;2023-11-19T11:39:47;96410.34;;;11.71;92.05
82858;BME280;72620;47.774;9.620;2023-11-19T11:55:57;96406.03;;;12.21;90.62
82858;BME280;72620;47.774;9.620;2023-11-19T11:58:29;96409.78;;;12.35;90.17
82858;BME280;72620;47.774;9.620;2023-11-19T12:01:01;96409.78;;;12.35;90.17
82858;BME280;72620;47.774;9.620;2023-11-19T12:03:30;96400.75;;;12.39;89.36
82858;BME280;72620;47.774;9.620;2023-11-19T12:05:58;96403.16;;;12.41;89.99
82858;BME280;72620;47.774;9.620;2023-11-19T12:08:29;96404.28;;;12.38;89.54
82858;BME280;72620;47.774;9.620;2023-11-19T12:10:58;96414.63;;;12.54;88.88
82858;BME280;72620;47.774;9.620;2023-11-19T12:13:52;96403.38;;;12.63;88.39
82858;BME280;72620;47.774;9.620;2023-11-19T12:16:26;96400.00;;;12.71;87.87
82858;BME280;72620;47.774;9.620;2023-11-19T12:18:54;96400.00;;;12.71;87.87
82858;BME280;72620;47.774;9.620;2023-11-19T12:21:31;96406.75;;;12.64;88.14
82858;BME280;72620;47.774;9.620;2023-11-19T12:24:00;96398.34;;;12.54;88.77
82858;BME280;72620;47.774;9.620;2023-11-19T12:26:38;96399.34;;;12.53;88.92
82858;BME280;72620;47.774;9.620;2023-11-19T12:29:06;96403.53;;;12.62;88.72
82858;BME280;72620;47.774;9.620;2023-11-19T12:31:35;96403.53;;;12.62;88.72
82858;BME280;72620;47.774;9.620;2023-11-19T12:34:07;96387.59;;;12.66;88.16
82858;BME280;72620;47.774;9.620;2023-11-19T12:36:40;96387.59;;;12.66;88.16
82858;BME280;72620;47.774;9.620;2023-11-19T12:39:08;96390.16;;;12.74;87.68
82858;BME280;72620;47.774;9.620;2023-11-19T12:41:51;96390.16;;;12.74;87.68
82858;BME280;72620;47.774;9.620;2023-11-19T12:44:19;96384.22;;;12.66;88.69
82858;BME280;72620;47.774;9.620;2023-11-19T12:47:01;96383.72;;;12.70;87.88
82858;BME280;72620;47.774;9.620;2023-11-19T12:49:29;96379.56;;;12.77;87.46
82858;BME280;72620;47.774;9.620;2023-11-19T12:51:56;96375.19;;;12.78;87.83
82858;BME280;72620;47.774;9.620;2023-11-19T12:54:41;96379.84;;;12.82;87.37
82858;BME280;72620;47.774;9.620;2023-11-19T12:57:08;96384.53;;;12.87;87.27
82858;BME280;72620;47.774;9.620;2023-11-19T12:59:35;96384.53;;;12.87;87.27
82858;BME280;72620;47.774;9.620;2023-11-19T13:02:02;96379.38;;;12.79;87.62
82858;BME280;72620;47.774;9.620;2023-11-19T13:04:32;96373.75;;;12.75;87.33
82858;BME280;72620;47.774;9.620;2023-11-19T13:07:00;96373.91;;;12.74;86.80
82858;BME280;72620;47.774;9.620;2023-11-19T13:09:31;96373.91;;;12.74;86.80
82858;BME280;72620;47.774;9.620;2023-11-19T13:11:59;96376.50;;;12.66;86.76
82858;BME280;72620;47.774;9.620;2023-11-19T13:14:36;96367.94;;;12.65;87.38
82858;BME280;72620;47.774;9.620;2023-11-19T13:17:12;96358.44;;;12.58;87.25
82858;BME280;72620;47.774;9.620;2023-11-19T13:19:41;96355.22;;;12.56;88.13
82858;BME280;72620;47.774;9.620;2023-11-19T13:22:08;96365.06;;;12.52;87.77
82858;BME280;72620;47.774;9.620;2023-11-19T13:24:35;96354.75;;;12.52;87.42
82858;BME280;72620;47.774;9.620;2023-11-19T13:27:02;96353.47;;;12.48;87.96
82858;BME280;72620;47.774;9.620;2023-11-19T13:29:29;96350.41;;;12.53;87.52
82858;BME280;72620;47.774;9.620;2023-11-19T13:31:58;96348.81;;;12.52;87.29
82858;BME280;72620;47.774;9.620;2023-11-19T13:34:26;96342.53;;;12.54;87.44
82858;BME280;72620;47.774;9.620;2023-11-19T13:36:53;96327.56;;;12.58;87.04
82858;BME280;72620;47.774;9.620;2023-11-19T13:39:20;96341.72;;;12.62;86.65
82858;BME280;72620;47.774;9.620;2023-11-19T13:41:50;96336.25;;;12.65;87.31